Time;durP1;ratioP1;P1;durP2;ratioP2;P2;SDS_P1;SDS_P2;PMS_P1;PMS_P2;Temp;Humidity;BMP_temperature;BMP_pressure;BME280_temperature;BME280_humidity;BME280_pressure;Samples;Min_cycle;Max_cycle;Signal;HPM_P1;HPM_P2
2023/01/27 00:02:00;;;;;;;2.30;1.63;;;27.60;44.70;;;;;;4934195;29;20235;-51
2023/01/27 00:04:33;;;;;;;2.58;1.45;;;27.60;44.70;;;;;;4934036;29;20200;-52
2023/01/27 00:07:04;;;;;;;2.53;1.40;;;27.70;44.80;;;;;;4934165;29;20719;-53
2023/01/27 00:09:34;;;;;;;1.63;1.50;;;27.70;44.80;;;;;;4932928;29;20199;-53
2023/01/27 00:14:51;;;;;;;1.83;1.33;;;27.70;44.80;;;;;;4934366;29;20202;-53
2023/01/27 00:17:22;;;;;;;2.83;1.67;;;27.70;44.70;;;;;;4933961;29;20312;-54
2023/01/27 00:19:55;;;;;;;2.88;1.60;;;27.80;44.70;;;;;;4933640;29;20613;-55
2023/01/27 00:25:12;;;;;;;2.33;1.30;;;27.80;44.50;;;;;;4933444;29;20630;-52
2023/01/27 00:27:43;;;;;;;2.05;1.25;;;27.80;44.50;;;;;;4933854;29;20298;-53
2023/01/27 00:30:15;;;;;;;1.45;1.20;;;27.90;44.50;;;;;;4934013;29;20215;-52
2023/01/27 00:35:34;;;;;;;3.10;1.40;;;27.90;44.90;;;;;;4934272;29;20227;-51
2023/01/27 00:38:05;;;;;;;1.92;1.40;;;28.00;44.40;;;;;;4933717;29;20227;-53
2023/01/27 00:40:36;;;;;;;1.83;1.48;;;28.00;44.50;;;;;;4933610;29;20672;-52
2023/01/27 00:43:06;;;;;;;2.00;1.33;;;28.00;44.50;;;;;;4933917;29;20209;-54
2023/01/27 00:45:52;;;;;;;1.60;1.45;;;28.00;44.40;;;;;;4933831;29;20218;-52
2023/01/27 00:48:23;;;;;;;2.40;1.30;;;28.10;44.50;;;;;;4933643;29;20207;-50
2023/01/27 00:50:55;;;;;;;1.40;1.30;;;28.10;44.50;;;;;;4933615;29;20575;-55
2023/01/27 00:53:26;;;;;;;2.15;1.27;;;28.10;44.40;;;;;;4933635;29;20299;-54
2023/01/27 00:55:57;;;;;;;1.92;1.45;;;28.10;44.40;;;;;;4945044;29;20206;-48
2023/01/27 00:58:28;;;;;;;1.27;1.17;;;28.10;44.20;;;;;;4952750;28;20218;-51
2023/01/27 01:01:02;;;;;;;1.75;1.50;;;28.10;44.10;;;;;;4952703;28;20247;-51
2023/01/27 01:03:34;;;;;;;1.75;1.27;;;28.20;43.90;;;;;;4943625;28;20691;-50
2023/01/27 01:06:08;;;;;;;1.63;1.20;;;28.20;43.80;;;;;;4933232;29;20678;-50
2023/01/27 01:08:40;;;;;;;2.28;1.20;;;28.20;43.70;;;;;;4933252;29;20231;-52
2023/01/27 01:11:14;;;;;;;1.42;1.27;;;28.20;43.60;;;;;;4933259;29;20226;-49
2023/01/27 01:13:45;;;;;;;1.90;1.40;;;28.30;43.70;;;;;;4930481;29;20258;-53
2023/01/27 01:16:20;;;;;;;1.50;1.40;;;28.30;43.70;;;;;;4933032;29;20211;-54
2023/01/27 01:18:51;;;;;;;2.53;1.60;;;28.30;43.70;;;;;;4925736;29;20587;-52
2023/01/27 01:21:23;;;;;;;3.47;1.40;;;28.40;43.90;;;;;;4933641;29;20242;-51
2023/01/27 01:23:54;;;;;;;2.25;1.40;;;28.40;43.90;;;;;;4952309;28;20225;-50
2023/01/27 01:26:25;;;;;;;4.10;1.58;;;28.40;43.90;;;;;;4951846;28;20198;-52
2023/01/27 01:28:56;;;;;;;1.92;1.50;;;28.40;43.90;;;;;;4952308;28;20241;-52
2023/01/27 01:31:26;;;;;;;2.13;1.30;;;28.40;43.90;;;;;;4937408;28;20218;-53
2023/01/27 01:33:57;;;;;;;1.90;1.23;;;28.50;44.00;;;;;;4932823;29;20215;-51
2023/01/27 01:36:29;;;;;;;1.77;1.27;;;28.50;44.10;;;;;;4932801;29;20223;-51
2023/01/27 01:39:00;;;;;;;1.45;1.30;;;28.50;43.90;;;;;;4922655;29;20249;-53
2023/01/27 01:41:31;;;;;;;3.47;1.17;;;28.50;43.60;;;;;;4950119;29;20239;-50
2023/01/27 01:44:16;;;;;;;2.38;1.50;;;28.50;43.50;;;;;;4932827;29;20222;-53
2023/01/27 01:46:46;;;;;;;2.40;1.52;;;28.60;43.50;;;;;;4935040;29;20200;-52
2023/01/27 01:49:19;;;;;;;3.17;1.40;;;28.60;43.40;;;;;;4932930;29;20212;-53
2023/01/27 01:51:54;;;;;;;3.17;1.60;;;28.60;43.40;;;;;;4932952;29;20210;-53
2023/01/27 01:54:28;;;;;;;2.10;1.30;;;28.70;43.40;;;;;;4932648;29;20211;-52
2023/01/27 01:57:04;;;;;;;1.70;1.40;;;28.70;43.40;;;;;;4933144;29;20199;-54
2023/01/27 01:59:37;;;;;;;1.95;1.30;;;28.70;43.40;;;;;;4932943;29;20195;-53
2023/01/27 02:02:11;;;;;;;2.75;1.42;;;28.80;43.60;;;;;;4939722;29;20242;-53
2023/01/27 02:04:47;;;;;;;1.77;1.42;;;28.80;43.50;;;;;;4937247;28;20204;-52
2023/01/27 02:07:27;;;;;;;1.67;1.42;;;28.80;43.50;;;;;;4933769;29;20219;-50
2023/01/27 02:10:00;;;;;;;1.77;1.52;;;28.80;43.50;;;;;;4935746;29;20552;-53
2023/01/27 02:12:30;;;;;;;3.17;1.27;;;28.80;43.50;;;;;;4936295;29;20204;-54
2023/01/27 02:15:01;;;;;;;1.58;1.48;;;28.90;43.50;;;;;;4936249;29;20207;-52
2023/01/27 02:17:32;;;;;;;1.73;1.50;;;28.90;43.50;;;;;;4936107;29;20220;-53
2023/01/27 02:20:10;;;;;;;2.75;1.50;;;28.90;43.40;;;;;;4936188;29;20204;-51
2023/01/27 02:22:50;;;;;;;2.85;1.40;;;28.90;43.30;;;;;;4936237;29;20223;-53
2023/01/27 02:25:26;;;;;;;1.83;1.30;;;29.00;43.30;;;;;;4936017;29;20203;-54
2023/01/27 02:27:58;;;;;;;2.50;1.40;;;29.00;43.30;;;;;;4936166;28;20211;-55
2023/01/27 02:30:30;;;;;;;2.83;1.38;;;29.10;43.20;;;;;;4935540;29;20218;-50
2023/01/27 02:33:01;;;;;;;1.35;1.15;;;29.10;43.10;;;;;;4935806;29;20211;-52
2023/01/27 02:35:36;;;;;;;3.55;1.75;;;29.10;43.10;;;;;;4935423;29;20211;-50
2023/01/27 02:38:08;;;;;;;2.25;1.38;;;29.20;43.10;;;;;;4935490;29;20225;-50
2023/01/27 02:40:40;;;;;;;1.42;1.23;;;29.10;42.90;;;;;;4935938;29;20207;-50
2023/01/27 02:43:13;;;;;;;2.08;1.50;;;29.20;42.70;;;;;;4935850;29;20195;-52
2023/01/27 02:45:43;;;;;;;2.40;1.48;;;29.20;42.70;;;;;;4942015;29;20211;-51
2023/01/27 02:48:14;;;;;;;1.27;1.15;;;29.30;42.60;;;;;;4935000;29;20216;-52
2023/01/27 02:50:45;;;;;;;2.97;1.23;;;29.30;42.50;;;;;;4935310;29;20210;-49
2023/01/27 02:53:16;;;;;;;2.55;1.40;;;29.30;42.40;;;;;;4935467;29;20192;-50
2023/01/27 02:55:49;;;;;;;1.38;1.20;;;29.30;42.40;;;;;;4935706;29;20203;-50
2023/01/27 02:58:22;;;;;;;3.45;1.45;;;29.40;42.30;;;;;;4935482;29;20235;-53
2023/01/27 03:00:52;;;;;;;1.75;1.13;;;29.40;42.40;;;;;;4935620;29;20204;-51
2023/01/27 03:03:23;;;;;;;1.45;1.35;;;29.40;42.40;;;;;;4935209;29;20211;-49
2023/01/27 03:05:54;;;;;;;1.45;1.02;;;29.40;42.40;;;;;;4935092;29;20675;-49
2023/01/27 03:08:24;;;;;;;3.55;1.45;;;29.50;42.40;;;;;;4935334;29;20230;-48
2023/01/27 03:10:56;;;;;;;1.65;1.45;;;29.50;42.40;;;;;;4929197;29;20567;-48
2023/01/27 03:13:29;;;;;;;1.73;1.33;;;29.50;42.30;;;;;;4934359;29;20195;-52
2023/01/27 03:18:49;;;;;;;2.05;1.33;;;29.60;42.30;;;;;;4934087;29;20290;-47
2023/01/27 03:21:20;;;;;;;1.60;1.30;;;29.60;42.20;;;;;;4935033;29;20227;-52
2023/01/27 03:23:51;;;;;;;1.27;1.15;;;29.60;42.10;;;;;;4917043;29;20204;-52
2023/01/27 03:26:22;;;;;;;1.23;1.08;;;29.70;42.20;;;;;;4934838;29;20735;-53
2023/01/27 03:31:38;;;;;;;1.35;1.20;;;29.70;42.30;;;;;;4940503;29;20207;-54
2023/01/27 03:34:08;;;;;;;1.70;1.40;;;29.70;42.20;;;;;;4923436;29;20222;-51
2023/01/27 03:47:31;;;;;;;1.75;1.20;;;29.80;41.80;;;;;;4934242;29;20226;-49
2023/01/27 03:50:01;;;;;;;2.10;1.20;;;29.80;41.50;;;;;;4934216;29;20279;-55
2023/01/27 03:52:32;;;;;;;2.55;1.30;;;29.80;39.70;;;;;;4934683;29;20208;-54
2023/01/27 03:55:03;;;;;;;3.30;1.02;;;29.80;39.80;;;;;;4934231;29;20195;-54
2023/01/27 03:57:33;;;;;;;1.70;1.13;;;29.80;40.00;;;;;;4933693;29;20219;-55
2023/01/27 04:00:06;;;;;;;1.98;1.10;;;29.80;40.10;;;;;;4933524;29;20203;-56
2023/01/27 04:08:10;;;;;;;1.30;0.88;;;29.80;40.30;;;;;;4952253;28;20234;-53
2023/01/27 04:11:53;;;;;;;2.58;1.38;;;29.80;40.50;;;;;;4950405;28;20561;-55
2023/01/27 04:13:30;;;;;;;1.75;1.10;;;29.80;40.50;;;;;;4952227;28;20203;-53
2023/01/27 04:16:03;;;;;;;2.42;1.15;;;29.80;40.60;;;;;;4941711;28;20204;-54
2023/01/27 04:18:33;;;;;;;2.03;1.17;;;29.90;40.50;;;;;;4933288;29;20226;-53
2023/01/27 04:21:04;;;;;;;1.75;1.10;;;29.80;40.60;;;;;;4932622;29;20196;-54
2023/01/27 04:23:35;;;;;;;2.95;1.50;;;29.90;40.70;;;;;;4934080;29;20195;-54
2023/01/27 04:26:05;;;;;;;3.33;1.25;;;29.90;40.80;;;;;;4933774;29;20195;-54
2023/01/27 04:28:36;;;;;;;1.67;1.10;;;29.90;40.70;;;;;;4933663;29;20227;-54
2023/01/27 04:31:09;;;;;;;1.92;1.42;;;29.90;40.80;;;;;;4933933;29;20195;-51
2023/01/27 04:33:39;;;;;;;1.88;1.13;;;29.90;40.80;;;;;;4933951;29;20207;-54
2023/01/27 04:36:10;;;;;;;2.28;1.63;;;29.90;41.40;;;;;;4933670;29;20211;-51
2023/01/27 04:38:41;;;;;;;3.72;1.52;;;30.00;40.90;;;;;;4933563;29;20223;-52
2023/01/27 04:41:12;;;;;;;2.55;1.60;;;30.00;41.00;;;;;;4933360;29;20207;-53
2023/01/27 04:43:43;;;;;;;4.28;1.20;;;30.00;41.10;;;;;;4933172;29;20200;-54
2023/01/27 04:46:15;;;;;;;3.03;1.38;;;30.00;41.10;;;;;;4929824;29;20203;-54
2023/01/27 04:48:46;;;;;;;1.50;1.10;;;30.00;41.30;;;;;;4914315;29;20227;-53
2023/01/27 04:51:17;;;;;;;2.45;1.27;;;30.00;41.30;;;;;;4925747;29;20195;-55
2023/01/27 04:53:48;;;;;;;2.40;1.30;;;30.00;41.30;;;;;;4932783;29;20546;-54
2023/01/27 04:56:25;;;;;;;3.70;1.17;;;30.00;41.40;;;;;;4932887;29;20196;-54
2023/01/27 04:58:59;;;;;;;2.00;1.65;;;30.00;41.50;;;;;;4932516;29;20215;-53
2023/01/27 05:01:32;;;;;;;1.80;1.40;;;30.00;41.50;;;;;;4932736;29;20203;-53
2023/01/27 05:04:02;;;;;;;2.60;1.42;;;30.00;41.60;;;;;;4929264;29;20196;-54
2023/01/27 05:06:33;;;;;;;1.40;1.27;;;30.00;41.60;;;;;;4938196;28;20203;-52
2023/01/27 05:09:04;;;;;;;1.92;1.38;;;30.00;41.70;;;;;;4951213;28;20223;-53
2023/01/27 05:11:35;;;;;;;2.53;1.45;;;30.00;41.80;;;;;;4928121;29;20239;-54
2023/01/27 05:14:05;;;;;;;2.20;1.55;;;30.00;41.90;;;;;;4933191;29;20206;-51
2023/01/27 05:16:39;;;;;;;2.63;1.77;;;30.00;41.90;;;;;;4933356;29;20200;-55
2023/01/27 05:19:11;;;;;;;1.90;1.63;;;30.00;42.60;;;;;;4933126;29;20207;-54
2023/01/27 05:21:43;;;;;;;1.75;1.35;;;30.00;42.00;;;;;;4933084;29;20245;-54
2023/01/27 05:24:14;;;;;;;2.42;1.60;;;30.00;42.00;;;;;;4933328;29;20200;-54
2023/01/27 05:26:45;;;;;;;2.17;1.40;;;30.00;42.00;;;;;;4932961;29;20200;-55
2023/01/27 05:29:15;;;;;;;3.15;1.60;;;30.00;42.10;;;;;;4933064;29;20203;-54
2023/01/27 05:31:48;;;;;;;1.95;1.52;;;30.00;42.10;;;;;;4933067;29;20204;-52
2023/01/27 05:34:19;;;;;;;4.05;1.90;;;30.00;42.10;;;;;;4932981;29;20203;-56
2023/01/27 05:36:50;;;;;;;3.30;1.60;;;30.00;42.10;;;;;;4932635;29;20213;-56
2023/01/27 05:39:26;;;;;;;3.47;1.90;;;30.00;42.10;;;;;;4932602;29;20204;-55
2023/01/27 05:41:56;;;;;;;2.72;1.70;;;30.00;42.20;;;;;;4933410;29;20233;-55
2023/01/27 05:44:27;;;;;;;5.10;1.92;;;30.00;42.20;;;;;;4935536;29;20200;-54
2023/01/27 05:47:00;;;;;;;2.35;1.73;;;30.00;42.20;;;;;;4935880;28;20203;-56
2023/01/27 05:49:30;;;;;;;2.40;1.58;;;30.00;42.20;;;;;;4938500;29;20196;-51
2023/01/27 05:52:01;;;;;;;2.83;1.60;;;30.00;42.30;;;;;;4948794;29;20851;-52
2023/01/27 05:54:32;;;;;;;2.17;1.60;;;30.00;42.30;;;;;;4955226;28;20206;-53
2023/01/27 05:57:02;;;;;;;3.65;1.80;;;30.00;42.40;;;;;;4948687;28;20203;-54
2023/01/27 05:59:33;;;;;;;2.75;1.80;;;30.00;42.40;;;;;;4935971;29;20203;-51
2023/01/27 06:02:06;;;;;;;2.85;1.80;;;30.00;42.50;;;;;;4936188;29;20719;-53
2023/01/27 06:04:36;;;;;;;3.33;1.98;;;29.90;42.40;;;;;;4936405;29;20204;-52
2023/01/27 06:07:07;;;;;;;2.42;1.90;;;30.00;42.50;;;;;;4936368;29;20227;-55
2023/01/27 06:09:39;;;;;;;2.90;1.70;;;30.00;42.50;;;;;;4939979;29;20196;-53
2023/01/27 06:12:10;;;;;;;2.90;1.65;;;29.90;42.50;;;;;;4955423;28;20689;-53
2023/01/27 06:14:40;;;;;;;5.28;2.13;;;29.90;42.50;;;;;;4955321;28;20202;-54
2023/01/27 06:17:13;;;;;;;4.00;2.05;;;29.90;42.60;;;;;;4936363;29;20591;-52
2023/01/27 06:19:43;;;;;;;3.58;2.10;;;29.90;42.60;;;;;;4936515;29;20660;-53
2023/01/27 06:22:14;;;;;;;3.85;2.25;;;29.80;42.60;;;;;;4936470;29;20227;-53
2023/01/27 06:24:45;;;;;;;3.03;1.65;;;29.80;42.70;;;;;;4936323;29;20203;-50
2023/01/27 06:27:16;;;;;;;4.18;2.10;;;29.80;42.70;;;;;;4936134;29;20247;-52
2023/01/27 06:29:47;;;;;;;3.67;2.15;;;29.80;42.80;;;;;;4935872;29;20219;-51
2023/01/27 06:32:19;;;;;;;4.05;2.10;;;29.80;42.80;;;;;;4935765;29;20731;-53
2023/01/27 06:34:50;;;;;;;2.10;1.85;;;29.80;42.90;;;;;;4936227;29;20207;-50
2023/01/27 06:37:21;;;;;;;4.13;2.03;;;29.80;42.90;;;;;;4935946;29;20440;-52
2023/01/27 06:39:51;;;;;;;3.58;2.03;;;29.70;42.90;;;;;;4936086;29;20212;-53
2023/01/27 06:42:22;;;;;;;3.17;2.15;;;29.70;43.00;;;;;;4935375;29;20234;-55
2023/01/27 06:44:53;;;;;;;4.18;1.98;;;29.70;43.00;;;;;;4936152;29;20270;-55
2023/01/27 06:47:26;;;;;;;3.30;2.00;;;29.70;43.00;;;;;;4935881;29;20223;-52
2023/01/27 06:49:56;;;;;;;4.78;2.05;;;29.70;43.00;;;;;;4935821;29;20656;-56
2023/01/27 06:52:27;;;;;;;3.90;2.15;;;29.60;42.80;;;;;;4926484;29;20211;-52
2023/01/27 06:54:58;;;;;;;3.42;2.15;;;29.60;42.90;;;;;;4916185;29;20750;-50
2023/01/27 06:57:28;;;;;;;2.90;1.88;;;29.60;42.90;;;;;;4916084;29;20224;-52
2023/01/27 06:59:59;;;;;;;2.88;1.75;;;29.60;43.00;;;;;;4916686;29;20287;-53
2023/01/27 07:02:32;;;;;;;3.22;1.90;;;29.60;43.00;;;;;;4916741;29;20239;-55
2023/01/27 07:05:02;;;;;;;3.75;2.25;;;29.60;43.10;;;;;;4918549;29;20203;-53
2023/01/27 07:07:33;;;;;;;3.40;1.80;;;29.50;43.30;;;;;;4916285;29;20580;-50
2023/01/27 07:10:04;;;;;;;1.98;1.40;;;29.50;43.10;;;;;;4916384;29;20204;-50
2023/01/27 07:12:36;;;;;;;2.25;1.88;;;29.50;43.10;;;;;;4916635;29;20205;-55
2023/01/27 07:15:09;;;;;;;2.50;1.80;;;29.40;43.20;;;;;;4920055;29;20214;-54
2023/01/27 07:17:41;;;;;;;2.88;1.70;;;29.40;43.20;;;;;;4935268;29;20219;-53
2023/01/27 07:20:15;;;;;;;2.78;1.60;;;29.40;43.20;;;;;;4935303;29;20204;-53
2023/01/27 07:22:46;;;;;;;4.43;1.90;;;29.40;43.20;;;;;;4935073;29;20219;-51
2023/01/27 07:25:16;;;;;;;3.72;2.10;;;29.40;43.30;;;;;;4935327;29;20204;-53
2023/01/27 07:27:47;;;;;;;3.17;1.80;;;29.40;43.30;;;;;;4935269;29;20226;-49
2023/01/27 07:30:18;;;;;;;3.15;1.70;;;29.40;43.30;;;;;;4935142;29;20204;-54
2023/01/27 07:32:51;;;;;;;2.83;2.08;;;29.40;43.30;;;;;;4934989;29;20211;-54
2023/01/27 07:35:21;;;;;;;3.20;1.83;;;29.30;43.30;;;;;;4935086;29;20199;-50
2023/01/27 07:37:52;;;;;;;2.97;1.90;;;29.30;43.40;;;;;;4935080;29;20234;-52
2023/01/27 07:40:23;;;;;;;2.85;1.80;;;29.30;43.40;;;;;;4935223;29;20690;-51
2023/01/27 07:42:54;;;;;;;2.95;1.70;;;29.20;44.00;;;;;;4937517;29;20230;-53
2023/01/27 07:45:24;;;;;;;2.25;1.60;;;29.20;43.40;;;;;;4934436;29;20672;-53
2023/01/27 07:48:03;;;;;;;3.13;1.65;;;29.20;43.50;;;;;;4934276;29;20252;-53
2023/01/27 07:50:33;;;;;;;3.28;1.70;;;29.10;43.50;;;;;;4934871;29;20204;-54
2023/01/27 07:53:05;;;;;;;2.08;1.58;;;29.20;43.60;;;;;;4934978;29;20683;-55
2023/01/27 07:55:36;;;;;;;2.80;1.73;;;29.10;43.60;;;;;;4934547;29;20210;-54
2023/01/27 07:58:07;;;;;;;2.10;1.48;;;29.10;43.60;;;;;;4934285;29;20234;-54
2023/01/27 08:00:38;;;;;;;3.45;1.75;;;29.00;43.60;;;;;;4934353;29;20200;-52
2023/01/27 08:03:22;;;;;;;1.70;1.60;;;29.00;43.70;;;;;;4934714;29;20236;-51
2023/01/27 08:05:53;;;;;;;3.30;1.80;;;29.00;43.60;;;;;;4951387;28;20577;-53
2023/01/27 08:08:23;;;;;;;2.00;1.33;;;29.00;43.70;;;;;;4953162;28;20233;-50
2023/01/27 08:10:54;;;;;;;2.53;1.80;;;29.00;43.70;;;;;;4953164;28;20237;-53
2023/01/27 08:13:25;;;;;;;2.63;1.63;;;29.00;43.70;;;;;;4953075;28;20207;-53
2023/01/27 08:15:59;;;;;;;2.40;1.60;;;28.90;43.70;;;;;;4942939;28;20208;-50
2023/01/27 08:18:32;;;;;;;2.88;1.60;;;28.90;43.70;;;;;;4933849;29;20231;-51
2023/01/27 08:21:04;;;;;;;2.15;1.55;;;28.80;43.60;;;;;;4934351;29;20226;-49
2023/01/27 08:23:35;;;;;;;3.70;1.70;;;28.90;43.70;;;;;;4934099;29;20876;-52
2023/01/27 08:26:07;;;;;;;2.83;1.67;;;28.80;43.70;;;;;;4933921;29;20206;-52
2023/01/27 08:28:39;;;;;;;2.13;1.25;;;28.80;43.80;;;;;;4934036;29;20230;-52
2023/01/27 08:31:11;;;;;;;2.63;1.52;;;28.80;43.80;;;;;;4933906;29;20207;-50
2023/01/27 08:33:44;;;;;;;3.22;1.60;;;28.70;43.80;;;;;;4933948;29;20203;-52
2023/01/27 08:36:18;;;;;;;2.15;1.52;;;28.70;43.90;;;;;;4934204;29;20217;-52
2023/01/27 08:38:49;;;;;;;3.67;1.80;;;28.70;43.90;;;;;;4934043;29;20679;-50
2023/01/27 08:41:22;;;;;;;2.95;1.55;;;28.70;43.90;;;;;;4934458;29;20270;-54
2023/01/27 08:43:53;;;;;;;4.05;1.60;;;28.70;43.90;;;;;;4933986;29;20231;-48
2023/01/27 08:46:24;;;;;;;4.00;1.85;;;28.60;43.90;;;;;;4933886;29;20230;-51
2023/01/27 08:48:56;;;;;;;4.38;1.85;;;28.60;43.90;;;;;;4933902;29;20223;-52
2023/01/27 08:51:27;;;;;;;3.13;1.73;;;28.60;44.00;;;;;;4934025;29;20219;-51
2023/01/27 08:53:58;;;;;;;2.60;1.45;;;28.60;44.00;;;;;;4921068;29;20200;-53
2023/01/27 08:56:29;;;;;;;2.53;1.55;;;28.50;44.00;;;;;;4914703;29;20207;-49
2023/01/27 08:59:00;;;;;;;3.70;1.50;;;28.50;44.10;;;;;;4914721;29;20220;-50
2023/01/27 09:01:31;;;;;;;3.60;1.55;;;28.40;44.00;;;;;;4914814;29;20223;-54
2023/01/27 09:04:03;;;;;;;3.13;1.73;;;28.50;44.10;;;;;;4914723;29;20243;-53
2023/01/27 09:06:34;;;;;;;2.72;1.50;;;28.40;44.10;;;;;;4914373;29;20208;-53
2023/01/27 09:09:10;;;;;;;2.95;1.70;;;28.30;44.10;;;;;;4914198;29;20247;-50
2023/01/27 09:11:43;;;;;;;4.18;1.83;;;28.40;44.20;;;;;;4914713;29;20668;-51
2023/01/27 09:14:14;;;;;;;3.22;1.73;;;28.30;44.20;;;;;;4916668;29;20201;-54
2023/01/27 09:16:45;;;;;;;2.92;1.65;;;28.30;44.20;;;;;;4932965;29;20266;-52
2023/01/27 09:19:18;;;;;;;4.07;1.65;;;28.30;44.30;;;;;;4937812;29;20644;-53
2023/01/27 09:21:49;;;;;;;3.70;1.80;;;28.20;44.30;;;;;;4937656;29;20199;-55
2023/01/27 09:24:20;;;;;;;3.20;1.90;;;28.30;44.30;;;;;;4937613;29;20238;-52
2023/01/27 09:26:50;;;;;;;2.47;1.80;;;28.20;44.30;;;;;;4937286;29;20199;-53
2023/01/27 09:29:21;;;;;;;3.10;1.65;;;28.20;44.40;;;;;;4937115;29;20199;-52
2023/01/27 09:31:52;;;;;;;4.10;1.70;;;28.20;44.40;;;;;;4937197;29;20199;-53
2023/01/27 09:34:24;;;;;;;3.85;1.50;;;28.20;44.50;;;;;;4936774;29;20569;-51
2023/01/27 09:36:59;;;;;;;3.53;1.80;;;28.10;44.50;;;;;;4936073;29;20215;-55
2023/01/27 09:39:31;;;;;;;3.00;1.65;;;28.10;44.50;;;;;;4937478;29;20206;-53
2023/01/27 09:42:23;;;;;;;2.45;1.45;;;28.10;44.60;;;;;;4953161;29;20203;-56
2023/01/27 09:45:28;;;;;;;13.75;4.65;;;28.00;44.60;;;;;;4954100;28;20230;-52
2023/01/27 09:48:27;;;;;;;22.73;6.60;;;28.00;44.70;;;;;;4918908;29;20215;-57
2023/01/27 09:51:07;;;;;;;24.25;6.35;;;28.00;44.90;;;;;;4934036;29;20664;-54
2023/01/27 09:54:20;;;;;;;16.02;5.28;;;27.90;45.00;;;;;;4924243;29;20195;-57
2023/01/27 09:57:00;;;;;;;13.73;4.78;;;27.90;45.20;;;;;;4898074;29;20200;-55
2023/01/27 09:59:49;;;;;;;14.52;4.55;;;27.90;45.20;;;;;;4929205;29;20195;-53
2023/01/27 10:02:36;;;;;;;16.48;4.57;;;27.80;45.30;;;;;;4954224;28;20207;-57
2023/01/27 10:05:31;;;;;;;14.77;3.90;;;27.80;45.30;;;;;;4947089;28;20234;-55
2023/01/27 10:08:25;;;;;;;12.88;4.18;;;27.80;45.40;;;;;;4935623;29;20219;-56
2023/01/27 10:11:18;;;;;;;8.23;3.47;;;27.80;45.40;;;;;;4926500;29;20205;-54
2023/01/27 10:13:58;;;;;;;7.50;3.45;;;27.70;45.40;;;;;;4916460;29;20295;-53
2023/01/27 10:16:53;;;;;;;9.27;2.92;;;27.70;45.40;;;;;;4931049;29;20488;-52
2023/01/27 10:19:41;;;;;;;5.38;2.42;;;27.60;45.00;;;;;;4926582;29;20211;-53
2023/01/27 10:22:21;;;;;;;7.18;2.97;;;27.60;44.90;;;;;;4933047;29;20571;-57
2023/01/27 10:25:08;;;;;;;9.50;2.95;;;27.50;44.80;;;;;;4935072;29;20227;-54
2023/01/27 10:27:42;;;;;;;7.53;2.40;;;27.50;45.00;;;;;;4934082;29;20220;-55
2023/01/27 10:30:17;;;;;;;6.22;2.22;;;27.40;45.10;;;;;;4936074;29;20336;-53
2023/01/27 10:32:52;;;;;;;6.00;2.30;;;27.30;45.10;;;;;;4936266;29;20199;-53
2023/01/27 10:35:29;;;;;;;7.63;2.72;;;27.30;45.20;;;;;;4934738;29;20199;-54
2023/01/27 10:38:09;;;;;;;6.95;2.00;;;27.30;45.40;;;;;;4935109;29;20238;-51
2023/01/27 10:40:50;;;;;;;7.05;2.40;;;27.20;46.10;;;;;;4934774;29;20214;-50
2023/01/27 10:43:27;;;;;;;6.07;2.50;;;27.20;45.60;;;;;;4916686;29;20230;-55
2023/01/27 10:46:07;;;;;;;8.07;2.45;;;27.10;45.70;;;;;;4920422;29;20657;-55
2023/01/27 10:48:45;;;;;;;7.75;2.35;;;27.10;45.80;;;;;;4916405;29;20228;-56
2023/01/27 10:51:20;;;;;;;4.60;2.00;;;27.00;46.00;;;;;;4931107;28;20203;-55
2023/01/27 10:53:58;;;;;;;3.78;1.92;;;27.00;46.20;;;;;;4954266;28;20273;-56
2023/01/27 10:56:37;;;;;;;6.35;2.90;;;26.90;46.40;;;;;;4954165;28;20599;-53
2023/01/27 10:59:17;;;;;;;5.82;2.20;;;26.90;46.60;;;;;;4954501;28;20222;-54
2023/01/27 11:01:51;;;;;;;6.00;2.50;;;26.90;46.70;;;;;;4953543;28;20647;-55
2023/01/27 11:04:29;;;;;;;6.40;2.15;;;26.90;46.80;;;;;;4954210;28;20811;-54
2023/01/27 11:07:01;;;;;;;4.25;2.20;;;26.80;46.80;;;;;;4931487;28;20200;-55
2023/01/27 11:09:34;;;;;;;5.72;1.85;;;26.80;46.90;;;;;;4915378;29;20240;-55
2023/01/27 11:12:12;;;;;;;4.75;2.03;;;26.80;46.90;;;;;;4929227;29;20203;-50
2023/01/27 11:14:47;;;;;;;10.18;2.65;;;26.70;46.90;;;;;;4935101;29;20206;-54
2023/01/27 11:17:26;;;;;;;5.40;2.40;;;26.70;46.90;;;;;;4934644;29;20219;-55
2023/01/27 11:20:05;;;;;;;6.97;2.33;;;26.70;46.90;;;;;;4934394;29;20243;-51
2023/01/27 11:22:45;;;;;;;8.38;2.25;;;26.70;46.90;;;;;;4935526;29;20195;-48
2023/01/27 11:25:30;;;;;;;6.13;1.90;;;26.70;47.10;;;;;;4954465;28;20261;-54
2023/01/27 11:28:23;;;;;;;5.10;2.15;;;26.70;47.10;;;;;;4954366;28;20225;-56
2023/01/27 11:31:04;;;;;;;6.53;2.30;;;26.60;47.10;;;;;;4950968;28;20241;-50
2023/01/27 11:33:48;;;;;;;5.97;2.50;;;26.60;47.10;;;;;;4953149;28;20202;-51
2023/01/27 11:36:32;;;;;;;3.70;1.83;;;26.60;47.20;;;;;;4954100;28;20206;-49
2023/01/27 11:39:05;;;;;;;6.00;2.58;;;26.60;47.20;;;;;;4952390;28;20338;-49
2023/01/27 11:41:39;;;;;;;4.25;2.10;;;26.50;47.10;;;;;;4952467;29;20207;-51
2023/01/27 11:44:19;;;;;;;6.45;2.22;;;26.50;47.10;;;;;;4953988;28;20698;-54
2023/01/27 11:46:50;;;;;;;4.90;1.95;;;26.50;47.20;;;;;;4936927;28;20207;-53
2023/01/27 11:49:24;;;;;;;5.70;2.20;;;26.50;47.20;;;;;;4935385;29;20200;-53
2023/01/27 11:52:04;;;;;;;6.97;2.35;;;26.40;47.20;;;;;;4934866;29;20203;-54
2023/01/27 11:54:40;;;;;;;4.03;1.58;;;26.50;47.20;;;;;;4934887;29;20203;-52
2023/01/27 11:57:21;;;;;;;6.50;2.13;;;26.50;47.10;;;;;;4934410;29;20219;-53
2023/01/27 11:59:56;;;;;;;4.15;2.10;;;26.40;47.10;;;;;;4936938;29;20583;-50
2023/01/27 12:02:33;;;;;;;4.35;1.92;;;26.40;47.10;;;;;;4934356;29;20560;-52
2023/01/27 12:05:08;;;;;;;4.78;1.90;;;26.40;47.10;;;;;;4933985;29;20604;-53
2023/01/27 12:07:47;;;;;;;6.35;2.05;;;26.40;47.10;;;;;;4934067;29;20223;-55
2023/01/27 12:10:30;;;;;;;6.30;1.90;;;26.40;47.10;;;;;;4934185;29;20196;-52
2023/01/27 12:13:03;;;;;;;4.60;1.80;;;26.30;47.10;;;;;;4933983;29;20258;-55
2023/01/27 12:15:36;;;;;;;3.35;1.55;;;26.30;47.10;;;;;;4934231;29;20199;-55
2023/01/27 12:18:14;;;;;;;5.13;2.00;;;26.30;47.10;;;;;;4934004;29;20224;-54
2023/01/27 12:20:46;;;;;;;3.78;1.80;;;26.20;47.10;;;;;;4934215;29;20214;-50
2023/01/27 12:23:26;;;;;;;4.75;1.98;;;26.20;47.10;;;;;;4934106;29;20204;-50
2023/01/27 12:25:58;;;;;;;3.67;1.80;;;26.20;47.10;;;;;;4933837;29;20227;-54
2023/01/27 12:28:33;;;;;;;3.33;1.90;;;26.20;47.10;;;;;;4934182;29;20226;-53
2023/01/27 12:31:10;;;;;;;3.50;1.50;;;26.20;47.10;;;;;;4933719;29;20207;-54
2023/01/27 12:33:45;;;;;;;5.03;1.65;;;26.20;47.10;;;;;;4933704;29;20667;-55
2023/01/27 12:36:19;;;;;;;3.67;1.73;;;26.10;47.10;;;;;;4934010;29;20710;-54
2023/01/27 12:38:54;;;;;;;3.42;1.45;;;26.10;47.10;;;;;;4933983;29;20226;-55
2023/01/27 12:41:26;;;;;;;3.88;1.70;;;26.10;47.10;;;;;;4934159;29;20214;-50
2023/01/27 12:43:59;;;;;;;3.40;1.85;;;26.10;47.10;;;;;;4933613;29;20203;-54
2023/01/27 12:46:33;;;;;;;3.67;1.90;;;26.00;47.10;;;;;;4933907;29;20203;-54
2023/01/27 12:49:13;;;;;;;4.45;1.50;;;26.10;47.20;;;;;;4932109;29;20734;-54
2023/01/27 12:51:47;;;;;;;4.00;1.60;;;26.00;47.70;;;;;;4933284;29;20286;-55
2023/01/27 12:54:22;;;;;;;3.05;1.60;;;26.00;47.10;;;;;;4921086;29;20196;-55
2023/01/27 12:56:54;;;;;;;4.57;1.92;;;26.00;47.10;;;;;;4926460;29;20199;-53
2023/01/27 12:59:27;;;;;;;3.38;1.90;;;26.00;47.20;;;;;;4952515;28;20194;-54
2023/01/27 13:02:05;;;;;;;3.65;1.50;;;26.00;47.20;;;;;;4952654;28;20206;-56
2023/01/27 13:04:35;;;;;;;2.85;1.50;;;25.90;47.20;;;;;;4952598;28;20222;-51
2023/01/27 13:07:15;;;;;;;3.22;1.60;;;25.90;47.10;;;;;;4952533;28;20289;-55
2023/01/27 13:09:52;;;;;;;4.05;1.60;;;25.90;47.20;;;;;;4952613;28;20195;-55
2023/01/27 13:12:26;;;;;;;3.55;1.65;;;25.90;47.20;;;;;;4925100;28;20200;-54
2023/01/27 13:14:58;;;;;;;2.83;1.50;;;25.80;47.10;;;;;;4916345;29;20215;-53
2023/01/27 13:17:43;;;;;;;4.03;1.30;;;25.80;47.10;;;;;;4933319;29;20242;-52
2023/01/27 13:20:22;;;;;;;2.88;1.40;;;25.80;47.10;;;;;;4933183;29;20668;-54
2023/01/27 13:22:56;;;;;;;4.30;1.67;;;25.80;47.10;;;;;;4932797;29;20203;-56
2023/01/27 13:25:30;;;;;;;2.35;1.27;;;25.80;47.10;;;;;;4932452;29;20227;-51
2023/01/27 13:28:03;;;;;;;2.72;1.23;;;25.80;47.20;;;;;;4932217;29;20229;-50
2023/01/27 13:30:37;;;;;;;2.25;1.30;;;25.70;47.10;;;;;;4933215;28;20206;-51
2023/01/27 13:33:25;;;;;;;3.13;1.40;;;25.70;47.10;;;;;;4933078;29;20676;-48
2023/01/27 13:36:03;;;;;;;2.15;1.40;;;25.70;47.20;;;;;;4933345;29;20571;-50
2023/01/27 13:38:41;;;;;;;1.65;1.10;;;25.70;47.20;;;;;;4935940;29;20684;-50
2023/01/27 13:41:20;;;;;;;4.47;1.55;;;25.70;47.20;;;;;;4932871;29;20903;-54
2023/01/27 13:43:59;;;;;;;2.72;1.20;;;25.70;47.20;;;;;;4932558;29;20200;-52
2023/01/27 13:46:34;;;;;;;2.75;1.40;;;25.60;47.10;;;;;;4932584;29;20558;-54
2023/01/27 13:49:18;;;;;;;2.60;1.23;;;25.60;47.10;;;;;;4932927;29;20605;-52
2023/01/27 13:51:49;;;;;;;2.75;1.20;;;25.60;47.10;;;;;;4933229;29;20207;-52